Terminal Aerodrome Forecast
Issued by NWS

Home | Current Version | Previous Version | Text Only | Print | Product List | Glossary On
Versions: 1 2 3 4 5 6 7 8 9 10 11 12 13 14 15 16 17
000
FTUS43 KDLH 271132
TAFBRD
TAF
KBRD 271132Z 2712/2812 VRB03KT P6SM SKC
      TEMPO 2712/2713 3SM BR
     FM271400 15010G20KT P6SM SCT030
     FM280200 15009KT P6SM VCTS BKN030CB
     FM280900 15008KT 5SM -TSRA SCT020 BKN030CB=

USA.gov is the U.S. government's official web portal to all federal, state and local government web resources and services.